createdAt,value
2022-09-12T00:00:50.977Z,15.00
2022-09-12T00:03:47.859Z,14.40
2022-09-12T00:06:45.115Z,13.00
2022-09-12T00:09:42.254Z,13.60
2022-09-12T00:12:40.197Z,14.40
2022-09-12T00:15:43.449Z,15.20
2022-09-12T00:18:40.641Z,14.00
2022-09-12T00:21:38.720Z,14.20
2022-09-12T00:24:35.942Z,13.00
2022-09-12T00:27:32.909Z,11.80
2022-09-12T00:30:30.738Z,13.80
2022-09-12T00:33:27.745Z,16.80
2022-09-12T00:36:25.410Z,16.00
2022-09-12T00:39:23.203Z,17.20
2022-09-12T00:42:20.861Z,17.00
2022-09-12T00:45:23.293Z,16.00
2022-09-12T00:48:22.957Z,14.40
2022-09-12T00:51:20.018Z,17.00
2022-09-12T00:54:19.385Z,16.40
2022-09-12T00:57:16.576Z,18.00
2022-09-12T01:00:16.371Z,17.00
2022-09-12T01:03:15.424Z,14.00
2022-09-12T01:06:21.602Z,18.40
2022-09-12T01:09:21.645Z,12.80
2022-09-12T01:12:20.002Z,16.40
2022-09-12T01:15:17.064Z,17.00
2022-09-12T01:18:19.879Z,15.80
2022-09-12T01:21:38.480Z,16.00
2022-09-12T01:25:25.465Z,16.40
2022-09-12T01:28:53.545Z,17.80
2022-09-12T01:32:10.535Z,17.00
2022-09-12T01:35:08.456Z,16.00
2022-09-12T01:38:09.173Z,17.60
2022-09-12T01:41:26.045Z,18.20
2022-09-12T01:44:45.414Z,19.00
2022-09-12T01:47:48.319Z,20.20
2022-09-12T01:51:15.753Z,18.20
2022-09-12T01:54:21.616Z,17.00
2022-09-12T01:57:25.177Z,17.60
2022-09-12T02:00:22.207Z,19.00
2022-09-12T02:03:27.788Z,17.00
2022-09-12T02:06:40.750Z,18.40
2022-09-12T02:09:43.690Z,18.20
2022-09-12T02:12:49.425Z,18.40
2022-09-12T02:15:50.345Z,19.00
2022-09-12T02:18:52.467Z,19.00
2022-09-12T02:21:54.788Z,17.00
2022-09-12T02:24:55.962Z,16.00
2022-09-12T02:28:09.157Z,18.00
2022-09-12T02:31:13.650Z,18.00
2022-09-12T02:34:22.342Z,17.20
2022-09-12T02:37:23.833Z,17.00
2022-09-12T02:40:21.057Z,17.60
2022-09-12T02:43:18.438Z,17.20
2022-09-12T02:46:25.844Z,16.00
2022-09-12T02:49:22.914Z,19.00
2022-09-12T02:52:20.148Z,16.20
2022-09-12T02:55:17.249Z,17.40
2022-09-12T02:58:16.996Z,17.60
2022-09-12T03:01:16.627Z,20.00
2022-09-12T03:04:26.350Z,20.00
2022-09-12T03:07:23.710Z,19.40
2022-09-12T03:10:36.681Z,21.60
2022-09-12T03:14:12.422Z,23.20
2022-09-12T03:17:24.081Z,20.80
2022-09-12T03:20:48.809Z,22.80
2022-09-12T03:24:04.443Z,23.00
2022-09-12T03:27:20.376Z,21.00
2022-09-12T03:30:18.023Z,22.20
2022-09-12T03:33:16.785Z,20.80
2022-09-12T03:36:17.050Z,23.00
2022-09-12T03:39:13.981Z,23.20
2022-09-12T03:42:10.976Z,21.00
2022-09-12T03:45:08.833Z,18.20
2022-09-12T03:48:06.329Z,16.20
2022-09-12T03:51:04.230Z,21.80
2022-09-12T03:54:01.177Z,20.20
2022-09-12T03:56:58.226Z,21.00
2022-09-12T03:59:55.256Z,22.60
2022-09-12T04:02:57.093Z,23.00
2022-09-12T04:05:54.157Z,21.60
2022-09-12T04:08:52.273Z,22.00
2022-09-12T04:11:49.187Z,21.00
2022-09-12T04:14:46.141Z,24.80
2022-09-12T04:17:43.065Z,23.00
2022-09-12T04:20:40.320Z,23.00
2022-09-12T04:23:38.196Z,21.00
2022-09-12T04:26:35.307Z,23.00
2022-09-12T04:29:32.129Z,23.80
2022-09-12T04:32:31.197Z,23.00
2022-09-12T04:35:28.006Z,21.20
2022-09-12T04:38:25.483Z,23.00
2022-09-12T04:41:36.359Z,24.80
2022-09-12T04:44:33.009Z,23.20
2022-09-12T04:47:30.081Z,23.20
2022-09-12T04:50:27.002Z,24.00
2022-09-12T04:53:24.259Z,23.40
2022-09-12T04:56:21.295Z,22.60
2022-09-12T04:59:19.303Z,24.40
2022-09-12T05:02:16.324Z,20.00
2022-09-12T05:05:13.044Z,25.80
2022-09-12T05:08:10.201Z,24.60
2022-09-12T05:11:08.850Z,22.20
2022-09-12T05:14:06.248Z,23.60
2022-09-12T05:17:04.210Z,23.00
2022-09-12T05:20:01.834Z,22.40
2022-09-12T05:22:59.819Z,25.00
2022-09-12T05:25:58.388Z,24.00
2022-09-12T05:28:55.185Z,23.00
2022-09-12T05:31:53.051Z,24.80
2022-09-12T05:34:50.891Z,26.00
2022-09-12T05:37:48.065Z,22.40
2022-09-12T05:40:46.049Z,21.20
2022-09-12T05:43:43.037Z,22.60
2022-09-12T05:46:44.304Z,23.20
2022-09-12T05:49:41.846Z,23.20
2022-09-12T05:52:39.414Z,23.00
2022-09-12T05:55:36.740Z,23.00
2022-09-12T05:58:35.286Z,25.00
2022-09-12T06:01:33.359Z,24.40
2022-09-12T06:04:29.885Z,23.00
2022-09-12T06:07:27.474Z,25.00
2022-09-12T06:10:26.367Z,25.20
2022-09-12T06:13:23.174Z,26.20
2022-09-12T06:16:26.064Z,25.00
2022-09-12T06:19:23.962Z,25.00
2022-09-12T06:22:21.359Z,25.00
2022-09-12T06:25:18.325Z,24.80
2022-09-12T06:28:15.223Z,24.40
2022-09-12T06:31:17.278Z,23.60
2022-09-12T06:34:14.934Z,23.80
2022-09-12T06:37:11.950Z,24.20
2022-09-12T06:40:10.274Z,24.40
2022-09-12T06:43:07.109Z,25.20
2022-09-12T06:46:04.472Z,25.00
2022-09-12T06:49:02.424Z,25.00
2022-09-12T06:52:00.091Z,25.60
2022-09-12T06:54:57.077Z,22.00
2022-09-12T06:57:55.466Z,24.00
2022-09-12T07:00:56.010Z,24.00
2022-09-12T07:04:00.204Z,24.20
2022-09-12T07:06:57.356Z,24.40
2022-09-12T07:09:54.393Z,25.00
2022-09-12T07:12:51.140Z,23.60
2022-09-12T07:15:48.082Z,24.40
2022-09-12T07:18:46.493Z,25.00
2022-09-12T07:21:43.110Z,25.00
2022-09-12T07:24:41.296Z,24.40
2022-09-12T07:27:38.268Z,25.00
2022-09-12T07:30:36.778Z,22.40
2022-09-12T07:33:34.046Z,25.20
2022-09-12T07:36:31.292Z,25.00
2022-09-12T07:39:28.281Z,24.00
2022-09-12T07:42:25.193Z,22.40
2022-09-12T07:45:22.198Z,22.80
2022-09-12T07:48:19.377Z,22.80
2022-09-12T07:51:17.389Z,23.20
2022-09-12T07:54:14.737Z,24.40
2022-09-12T07:57:12.416Z,22.00
2022-09-12T08:00:10.901Z,19.40
2022-09-12T08:03:10.553Z,24.20
2022-09-12T08:06:11.587Z,21.00
2022-09-12T08:09:09.307Z,22.00
2022-09-12T08:12:06.309Z,24.40
2022-09-12T08:15:06.387Z,24.40
2022-09-12T08:18:03.270Z,24.20
2022-09-12T08:21:00.788Z,22.40
2022-09-12T08:24:03.760Z,23.80
2022-09-12T08:27:01.307Z,23.60
2022-09-12T08:29:58.556Z,23.00
2022-09-12T08:32:55.277Z,21.00
2022-09-12T08:35:52.171Z,22.00
2022-09-12T08:38:50.916Z,19.80
2022-09-12T08:41:49.179Z,20.80
2022-09-12T08:45:16.014Z,20.40
2022-09-12T08:48:13.158Z,21.00
2022-09-12T08:51:10.892Z,17.20
2022-09-12T08:54:17.425Z,18.40
2022-09-12T08:57:15.110Z,16.80
2022-09-12T09:00:16.061Z,18.00
2022-09-12T09:03:45.742Z,19.80
2022-09-12T09:06:53.983Z,17.20
2022-09-12T09:10:47.198Z,15.60
2022-09-12T09:14:05.224Z,17.60
2022-09-12T09:17:02.359Z,15.00
2022-09-12T09:20:27.866Z,17.40
2022-09-12T09:23:31.107Z,16.20
2022-09-12T09:26:31.726Z,15.60
2022-09-12T09:29:44.625Z,17.40
2022-09-12T09:32:42.277Z,16.00
2022-09-12T09:35:44.896Z,15.40
2022-09-12T09:38:54.758Z,14.00
2022-09-12T09:42:30.085Z,15.80
2022-09-12T09:45:30.325Z,15.40
2022-09-12T09:48:44.708Z,15.00
2022-09-12T09:51:42.288Z,13.80
2022-09-12T09:54:59.897Z,12.40
2022-09-12T09:57:57.326Z,14.20
2022-09-12T10:00:58.892Z,13.00
2022-09-12T10:03:56.425Z,12.20
2022-09-12T10:07:00.790Z,13.00
2022-09-12T10:10:05.783Z,14.40
2022-09-12T10:13:18.334Z,13.00
2022-09-12T10:16:23.685Z,14.80
2022-09-12T10:19:25.526Z,13.60
2022-09-12T10:22:24.289Z,11.20
2022-09-12T10:25:21.597Z,10.80
2022-09-12T10:28:40.486Z,13.80
2022-09-12T10:31:52.349Z,14.00
2022-09-12T10:34:51.314Z,13.60
2022-09-12T10:38:03.080Z,13.40
2022-09-12T10:41:10.369Z,11.20
2022-09-12T10:44:18.550Z,11.60
2022-09-12T10:47:24.499Z,12.20
2022-09-12T10:50:26.755Z,11.00
2022-09-12T10:53:33.753Z,10.00
2022-09-12T10:56:32.723Z,9.00
2022-09-12T11:00:18.217Z,11.00
2022-09-12T11:03:17.015Z,11.20
2022-09-12T11:06:15.301Z,11.00
2022-09-12T11:09:40.572Z,9.60
2022-09-12T11:12:59.448Z,10.40
2022-09-12T11:15:59.868Z,9.00
2022-09-12T11:19:25.334Z,10.00
2022-09-12T11:23:09.038Z,10.40
2022-09-12T11:26:15.349Z,8.00
2022-09-12T11:29:36.887Z,9.40
2022-09-12T11:32:39.347Z,9.00
2022-09-12T11:35:42.010Z,10.60
2022-09-12T11:39:05.555Z,9.00
2022-09-12T11:42:03.376Z,11.00
2022-09-12T11:45:40.569Z,10.00
2022-09-12T11:49:02.354Z,9.00
2022-09-12T11:52:17.139Z,9.00
2022-09-12T11:55:19.019Z,8.80
2022-09-12T11:58:16.791Z,8.80
2022-09-12T12:01:17.587Z,8.00
2022-09-12T12:04:15.950Z,10.00
2022-09-12T12:07:13.505Z,8.00
2022-09-12T12:10:27.844Z,10.00
2022-09-12T12:13:34.286Z,8.00
2022-09-12T12:16:35.274Z,8.20
2022-09-12T12:19:36.347Z,7.00
2022-09-12T12:22:33.822Z,8.00
2022-09-12T12:25:50.716Z,8.00
2022-09-12T12:28:51.197Z,10.20
2022-09-12T12:32:02.029Z,11.00
2022-09-12T12:35:11.273Z,11.00
2022-09-12T12:38:36.240Z,7.75
2022-09-12T12:41:42.974Z,8.40
2022-09-12T12:44:47.363Z,7.50
2022-09-12T12:47:44.967Z,8.00
2022-09-12T12:50:42.708Z,7.75
2022-09-12T12:53:40.670Z,8.60
2022-09-12T12:56:42.067Z,6.00
2022-09-12T12:59:47.333Z,7.50
2022-09-12T13:02:56.049Z,13.00
2022-09-12T13:05:57.575Z,7.50
2022-09-12T13:09:08.386Z,10.80
2022-09-12T13:12:25.297Z,11.00
2022-09-12T13:15:38.201Z,6.50
2022-09-12T13:18:48.717Z,7.25
2022-09-12T13:21:55.857Z,8.00
2022-09-12T13:24:53.688Z,7.00
2022-09-12T13:27:57.776Z,8.00
2022-09-12T13:31:09.152Z,7.00
2022-09-12T13:34:06.897Z,7.25
2022-09-12T13:37:28.918Z,7.00
2022-09-12T13:41:05.859Z,7.00
2022-09-12T13:44:02.642Z,7.00
2022-09-12T13:46:59.726Z,6.75
2022-09-12T13:49:56.637Z,7.50
2022-09-12T13:52:55.702Z,8.50
2022-09-12T13:55:54.529Z,7.00
2022-09-12T13:58:58.884Z,8.00
2022-09-12T14:01:56.729Z,4.75
2022-09-12T14:05:10.401Z,8.00
2022-09-12T14:08:08.436Z,7.25
2022-09-12T14:11:08.853Z,9.00
2022-09-12T14:14:06.614Z,10.40
2022-09-12T14:17:23.981Z,6.50
2022-09-12T14:20:23.424Z,7.00
2022-09-12T14:23:31.024Z,8.00
2022-09-12T14:26:34.177Z,7.40
2022-09-12T14:29:33.360Z,8.00
2022-09-12T14:32:30.708Z,6.00
2022-09-12T14:35:27.253Z,7.00
2022-09-12T14:38:45.037Z,6.50
2022-09-12T14:41:42.342Z,6.75
2022-09-12T14:44:39.535Z,14.00
2022-09-12T14:47:39.967Z,5.75
2022-09-12T14:50:37.513Z,10.40
2022-09-12T14:53:36.070Z,4.50
2022-09-12T14:56:40.891Z,7.00
2022-09-12T14:59:40.819Z,7.50
2022-09-12T15:02:37.655Z,10.40
2022-09-12T15:05:34.385Z,7.00
2022-09-12T15:08:31.804Z,6.50
2022-09-12T15:11:28.887Z,10.00
2022-09-12T15:14:25.915Z,9.00
2022-09-12T15:17:22.466Z,7.25
2022-09-12T15:20:19.532Z,6.50
2022-09-12T15:23:28.703Z,5.75
2022-09-12T15:26:27.617Z,5.25
2022-09-12T15:29:24.442Z,7.50
2022-09-12T15:32:29.757Z,5.00
2022-09-12T15:35:32.859Z,6.25
2022-09-12T15:38:29.919Z,6.00
2022-09-12T15:41:32.338Z,5.00
2022-09-12T15:44:29.506Z,7.00
2022-09-12T15:47:26.454Z,5.25
2022-09-12T15:50:23.621Z,6.00
2022-09-12T15:53:20.814Z,4.50
2022-09-12T15:56:19.445Z,6.50
2022-09-12T15:59:16.462Z,7.00
2022-09-12T16:02:14.097Z,6.00
2022-09-12T16:05:17.126Z,6.00
2022-09-12T16:08:14.811Z,6.00
2022-09-12T16:11:20.168Z,5.00
2022-09-12T16:14:18.496Z,6.75
2022-09-12T16:17:15.402Z,6.00
2022-09-12T16:20:13.050Z,6.50
2022-09-12T16:23:13.510Z,6.00
2022-09-12T16:26:10.637Z,4.75
2022-09-12T16:29:07.678Z,5.00
2022-09-12T16:32:05.134Z,0.00
2022-09-12T16:35:02.909Z,5.50
2022-09-12T16:38:00.530Z,6.00
2022-09-12T16:41:04.607Z,6.00
2022-09-12T16:44:01.734Z,5.00
2022-09-12T16:46:58.417Z,6.25
2022-09-12T16:49:55.822Z,5.00
2022-09-12T16:52:52.776Z,7.00
2022-09-12T16:55:50.051Z,6.25
2022-09-12T16:58:48.017Z,5.25
2022-09-12T17:01:45.318Z,7.00
2022-09-12T17:04:42.630Z,6.00
2022-09-12T17:07:39.610Z,6.50
2022-09-12T17:10:40.948Z,6.75
2022-09-12T17:14:02.625Z,5.50
2022-09-12T17:16:55.730Z,6.75
2022-09-12T17:19:53.726Z,7.75
2022-09-12T17:22:50.852Z,5.00
2022-09-12T17:25:48.465Z,6.25
2022-09-12T17:28:45.883Z,5.25
2022-09-12T17:31:43.066Z,6.00
2022-09-12T17:34:40.900Z,5.50
2022-09-12T17:37:37.871Z,6.75
2022-09-12T17:40:58.438Z,7.00
2022-09-12T17:43:57.261Z,6.25
2022-09-12T17:46:54.750Z,7.00
2022-09-12T17:50:05.177Z,6.50
2022-09-12T17:53:10.898Z,15.00
2022-09-12T17:56:07.934Z,19.60
2022-09-12T17:59:05.033Z,9.40
2022-09-12T18:02:13.881Z,7.75
2022-09-12T18:05:11.009Z,7.50
2022-09-12T18:08:07.441Z,8.00
2022-09-12T18:11:05.668Z,16.80
2022-09-12T18:14:02.945Z,31.20
2022-09-12T18:17:00.338Z,29.80
2022-09-12T18:19:57.716Z,27.60
2022-09-12T18:22:54.992Z,24.00
2022-09-12T18:25:57.698Z,20.00
2022-09-12T18:28:55.298Z,23.40
2022-09-12T18:31:52.900Z,17.40
2022-09-12T18:34:50.040Z,13.80
2022-09-12T18:37:47.171Z,12.00
2022-09-12T18:40:45.206Z,9.60
2022-09-12T18:43:43.510Z,8.20
2022-09-12T18:46:41.073Z,12.00
2022-09-12T18:49:38.354Z,8.80
2022-09-12T18:52:35.929Z,7.00
2022-09-12T18:55:33.247Z,7.40
2022-09-12T18:58:30.978Z,7.40
2022-09-12T19:01:32.530Z,7.20
2022-09-12T19:04:30.004Z,8.00
2022-09-12T19:07:27.070Z,7.80
2022-09-12T19:10:25.699Z,7.20
2022-09-12T19:13:23.119Z,9.00
2022-09-12T19:16:25.144Z,11.00
2022-09-12T19:19:23.618Z,7.00
2022-09-12T19:22:21.098Z,7.60
2022-09-12T19:25:18.880Z,10.80
2022-09-12T19:28:16.238Z,9.80
2022-09-12T19:31:15.375Z,10.00
2022-09-12T19:34:13.592Z,11.20
2022-09-12T19:37:10.894Z,10.80
2022-09-12T19:40:08.872Z,11.00
2022-09-12T19:43:09.261Z,11.00
2022-09-12T19:46:06.993Z,11.00
2022-09-12T19:49:04.526Z,12.80
2022-09-12T19:52:02.225Z,11.40
2022-09-12T19:54:59.986Z,12.20
2022-09-12T19:57:56.601Z,10.40
2022-09-12T20:00:54.697Z,12.60
2022-09-12T20:03:53.804Z,13.00
2022-09-12T20:06:50.807Z,12.00
2022-09-12T20:09:47.929Z,11.80
2022-09-12T20:12:45.019Z,11.00
2022-09-12T20:15:42.187Z,13.00
2022-09-12T20:18:39.688Z,13.80
2022-09-12T20:21:36.849Z,11.20
2022-09-12T20:24:34.143Z,14.00
2022-09-12T20:27:31.771Z,13.20
2022-09-12T20:30:29.028Z,11.00
2022-09-12T20:33:25.916Z,11.80
2022-09-12T20:36:22.739Z,11.40
2022-09-12T20:39:21.430Z,13.20
2022-09-12T20:42:18.927Z,10.00
2022-09-12T20:45:15.964Z,13.40
2022-09-12T20:48:14.372Z,13.00
2022-09-12T20:51:12.287Z,11.60
2022-09-12T20:54:10.494Z,10.80
2022-09-12T20:57:07.837Z,14.20
2022-09-12T21:00:07.243Z,11.60
2022-09-12T21:03:05.240Z,10.00
2022-09-12T21:06:02.011Z,10.40
2022-09-12T21:08:59.909Z,11.80
2022-09-12T21:11:57.173Z,9.00
2022-09-12T21:14:54.823Z,11.40
2022-09-12T21:17:52.418Z,11.00
2022-09-12T21:20:53.919Z,11.00
2022-09-12T21:23:51.106Z,11.00
2022-09-12T21:26:47.832Z,11.20
2022-09-12T21:29:45.052Z,12.00
2022-09-12T21:32:42.168Z,10.60
2022-09-12T21:35:39.207Z,10.60
2022-09-12T21:38:35.939Z,9.60
2022-09-12T21:41:34.452Z,9.80
2022-09-12T21:44:31.803Z,9.40
2022-09-12T21:47:28.798Z,8.40
2022-09-12T21:50:28.488Z,10.60
2022-09-12T21:53:25.983Z,9.60
2022-09-12T21:56:23.497Z,9.40
2022-09-12T21:59:21.134Z,9.80
2022-09-12T22:02:17.676Z,9.60
2022-09-12T22:05:15.358Z,11.00
2022-09-12T22:08:13.167Z,9.20
2022-09-12T22:11:10.138Z,11.00
2022-09-12T22:14:07.046Z,10.20
2022-09-12T22:17:04.239Z,8.60
2022-09-12T22:20:01.048Z,9.80
2022-09-12T22:23:16.394Z,10.80
2022-09-12T22:26:14.293Z,11.60
2022-09-12T22:29:11.315Z,11.00
2022-09-12T22:32:07.887Z,9.00
2022-09-12T22:35:06.283Z,10.00
2022-09-12T22:38:02.981Z,10.00
2022-09-12T22:41:04.157Z,11.80
2022-09-12T22:44:01.070Z,10.80
2022-09-12T22:46:58.127Z,11.00
2022-09-12T22:49:54.870Z,11.00
2022-09-12T22:52:52.673Z,9.80
2022-09-12T22:55:50.541Z,10.40
2022-09-12T22:58:48.152Z,11.20
2022-09-12T23:01:45.219Z,9.20
2022-09-12T23:04:42.207Z,10.20
2022-09-12T23:07:39.056Z,11.40
2022-09-12T23:10:36.844Z,11.20
2022-09-12T23:13:33.967Z,9.60
2022-09-12T23:16:32.204Z,10.00
2022-09-12T23:19:29.441Z,10.00
2022-09-12T23:22:27.051Z,9.40
2022-09-12T23:25:24.310Z,9.00
2022-09-12T23:28:21.536Z,12.00
2022-09-12T23:31:19.715Z,10.00
2022-09-12T23:34:17.236Z,8.20
2022-09-12T23:37:14.580Z,9.00
2022-09-12T23:40:12.306Z,10.20
2022-09-12T23:43:10.242Z,8.80
2022-09-12T23:46:07.486Z,8.80
2022-09-12T23:49:05.046Z,9.80
2022-09-12T23:52:02.148Z,9.00
2022-09-12T23:54:58.879Z,9.60
2022-09-12T23:57:56.377Z,9.00
